createdAt,value
2023-03-03T00:00:27.764Z,101625.34
2023-03-03T00:02:58.193Z,101618.31
2023-03-03T00:05:25.594Z,101620.97
2023-03-03T00:07:52.879Z,101621.34
2023-03-03T00:10:20.216Z,101610.31
2023-03-03T00:12:49.882Z,101619.94
2023-03-03T00:15:19.582Z,101622.34
2023-03-03T00:17:47.043Z,101617.63
2023-03-03T00:20:35.673Z,101628.44
2023-03-03T00:23:27.441Z,101622.97
2023-03-03T00:25:54.980Z,101617.06
2023-03-03T00:28:25.994Z,101623.38
2023-03-03T00:30:55.234Z,101624.84
2023-03-03T00:33:34.738Z,101622.78
2023-03-03T00:36:29.031Z,101626.56
2023-03-03T00:39:00.650Z,101623.47
2023-03-03T00:41:28.496Z,101628.34
2023-03-03T00:43:55.929Z,101618.50
2023-03-03T00:46:24.298Z,101614.38
2023-03-03T00:48:51.862Z,101623.31
2023-03-03T00:51:34.549Z,101620.84
2023-03-03T00:54:02.046Z,101624.13
2023-03-03T00:56:29.389Z,101625.25
2023-03-03T00:58:57.558Z,101622.06
2023-03-03T01:01:27.106Z,101627.06
2023-03-03T01:03:55.090Z,101628.41
2023-03-03T01:06:22.631Z,101628.81
2023-03-03T01:08:50.580Z,101623.03
2023-03-03T01:11:22.708Z,101627.31
2023-03-03T01:13:50.912Z,101629.97
2023-03-03T01:16:19.227Z,101630.31
2023-03-03T01:18:46.611Z,101632.22
2023-03-03T01:21:13.976Z,101629.72
2023-03-03T01:23:41.466Z,101625.38
2023-03-03T01:26:09.080Z,101634.22
2023-03-03T01:28:36.573Z,101638.31
2023-03-03T01:31:05.353Z,101633.38
2023-03-03T01:33:34.561Z,101644.53
2023-03-03T01:36:02.666Z,101640.72
2023-03-03T01:38:30.563Z,101638.91
2023-03-03T01:40:59.759Z,101639.16
2023-03-03T01:43:31.788Z,101648.00
2023-03-03T01:45:58.990Z,101631.25
2023-03-03T01:48:37.416Z,101637.94
2023-03-03T01:51:08.017Z,101634.28
2023-03-03T01:53:51.645Z,101632.22
2023-03-03T01:56:19.243Z,101627.91
2023-03-03T01:58:50.216Z,101623.66
2023-03-03T02:01:22.700Z,101627.00
2023-03-03T02:03:50.908Z,101625.28
2023-03-03T02:06:20.911Z,101629.00
2023-03-03T02:09:08.469Z,101612.88
2023-03-03T02:11:37.099Z,101623.22
2023-03-03T02:14:04.482Z,101614.31
2023-03-03T02:16:32.032Z,101620.84
2023-03-03T02:19:00.356Z,101628.00
2023-03-03T02:21:28.006Z,101618.84
2023-03-03T02:23:59.888Z,101621.84
2023-03-03T02:26:29.476Z,101617.53
2023-03-03T02:29:01.946Z,101616.06
2023-03-03T02:31:33.493Z,101606.88
2023-03-03T02:34:00.889Z,101616.59
2023-03-03T02:36:32.627Z,101620.78
2023-03-03T02:39:27.149Z,101622.41
2023-03-03T02:42:15.186Z,101617.81
2023-03-03T02:44:48.737Z,101612.03
2023-03-03T02:47:16.489Z,101611.44
2023-03-03T02:49:45.143Z,101622.22
2023-03-03T02:52:14.828Z,101621.22
2023-03-03T02:54:45.380Z,101626.31
2023-03-03T02:57:12.790Z,101627.03
2023-03-03T02:59:40.284Z,101623.63
2023-03-03T03:02:12.499Z,101625.13
2023-03-03T03:04:39.896Z,101632.03
2023-03-03T03:07:07.835Z,101627.94
2023-03-03T03:09:37.507Z,101621.13
2023-03-03T03:12:05.424Z,101622.16
2023-03-03T03:14:35.574Z,101616.13
2023-03-03T03:17:03.119Z,101615.44
2023-03-03T03:19:30.755Z,101627.00
2023-03-03T03:22:01.638Z,101616.94
2023-03-03T03:24:30.360Z,101620.34
2023-03-03T03:27:02.919Z,101621.56
2023-03-03T03:29:31.255Z,101608.06
2023-03-03T03:31:58.780Z,101621.84
2023-03-03T03:34:26.702Z,101620.81
2023-03-03T03:36:55.243Z,101624.03
2023-03-03T03:39:24.412Z,101624.00
2023-03-03T03:41:53.437Z,101618.97
2023-03-03T03:44:21.963Z,101629.94
2023-03-03T03:46:49.228Z,101621.81
2023-03-03T03:49:16.734Z,101629.75
2023-03-03T03:51:44.275Z,101629.75
2023-03-03T03:54:15.327Z,101633.44
2023-03-03T03:56:43.676Z,101635.13
2023-03-03T03:59:11.418Z,101635.78
2023-03-03T04:01:39.424Z,101636.31
2023-03-03T04:04:06.832Z,101635.31
2023-03-03T04:06:35.029Z,101642.66
2023-03-03T04:09:02.881Z,101643.69
2023-03-03T04:11:31.616Z,101649.09
2023-03-03T04:13:59.480Z,101651.41
2023-03-03T04:16:27.751Z,101644.94
2023-03-03T04:18:55.346Z,101649.47
2023-03-03T04:21:22.978Z,101646.97
2023-03-03T04:23:53.280Z,101640.34
2023-03-03T04:26:20.763Z,101638.94
2023-03-03T04:28:49.317Z,101647.19
2023-03-03T04:31:17.093Z,101639.94
2023-03-03T04:33:44.511Z,101655.13
2023-03-03T04:36:12.189Z,101655.75
2023-03-03T04:38:39.602Z,101653.44
2023-03-03T04:41:07.040Z,101653.38
2023-03-03T04:43:38.286Z,101664.19
2023-03-03T04:46:06.298Z,101659.09
2023-03-03T04:48:34.740Z,101658.25
2023-03-03T04:51:02.121Z,101662.38
2023-03-03T04:53:31.749Z,101664.75
2023-03-03T04:55:59.164Z,101659.44
2023-03-03T04:58:26.870Z,101661.34
2023-03-03T05:00:57.140Z,101661.47
2023-03-03T05:03:27.194Z,101660.03
2023-03-03T05:05:54.646Z,101655.06
2023-03-03T05:08:22.052Z,101661.53
2023-03-03T05:10:53.792Z,101658.09
2023-03-03T05:13:21.501Z,101656.34
2023-03-03T05:15:55.481Z,101656.25
2023-03-03T05:18:24.508Z,101662.50
2023-03-03T05:20:52.555Z,101661.22
2023-03-03T05:23:21.204Z,101653.00
2023-03-03T05:25:50.057Z,101656.28
2023-03-03T05:28:17.945Z,101658.03
2023-03-03T05:30:45.838Z,101659.13
2023-03-03T05:33:15.188Z,101656.75
2023-03-03T05:35:43.208Z,101654.69
2023-03-03T05:38:11.017Z,101660.56
2023-03-03T05:40:38.940Z,101671.59
2023-03-03T05:43:07.240Z,101664.22
2023-03-03T05:45:35.484Z,101669.78
2023-03-03T05:48:04.117Z,101655.97
2023-03-03T05:50:32.224Z,101666.06
2023-03-03T05:53:00.838Z,101659.13
2023-03-03T05:55:28.335Z,101671.78
2023-03-03T05:57:56.150Z,101663.97
2023-03-03T06:00:23.454Z,101666.84
2023-03-03T06:02:50.841Z,101674.88
2023-03-03T06:05:18.559Z,101667.28
2023-03-03T06:07:46.242Z,101675.66
2023-03-03T06:10:13.582Z,101679.31
2023-03-03T06:12:42.692Z,101669.19
2023-03-03T06:15:10.792Z,101671.50
2023-03-03T06:17:38.565Z,101670.88
2023-03-03T06:20:06.862Z,101676.53
2023-03-03T06:22:34.263Z,101681.63
2023-03-03T06:25:01.579Z,101673.47
2023-03-03T06:27:29.079Z,101676.88
2023-03-03T06:29:56.412Z,101686.25
2023-03-03T06:32:23.716Z,101692.13
2023-03-03T06:34:51.090Z,101689.09
2023-03-03T06:37:18.399Z,101704.34
2023-03-03T06:39:45.917Z,101705.78
2023-03-03T06:42:13.420Z,101711.81
2023-03-03T06:44:40.696Z,101712.25
2023-03-03T06:47:08.123Z,101715.13
2023-03-03T06:49:35.674Z,101723.56
2023-03-03T06:52:11.962Z,101728.38
2023-03-03T06:54:39.464Z,101729.06
2023-03-03T06:57:17.794Z,101732.25
2023-03-03T06:59:45.468Z,101724.31
2023-03-03T07:02:17.170Z,101737.69
2023-03-03T07:04:47.024Z,101737.09
2023-03-03T07:07:23.179Z,101737.47
2023-03-03T07:09:53.638Z,101742.06
2023-03-03T07:12:23.807Z,101750.59
2023-03-03T07:14:56.405Z,101753.66
2023-03-03T07:17:25.448Z,101761.03
2023-03-03T07:19:52.797Z,101765.03
2023-03-03T07:22:22.107Z,101764.09
2023-03-03T07:24:53.165Z,101773.78
2023-03-03T07:27:27.083Z,101768.34
2023-03-03T07:29:56.423Z,101771.63
2023-03-03T07:32:38.408Z,101764.09
2023-03-03T07:35:39.009Z,101765.97
2023-03-03T07:38:26.533Z,101772.34
2023-03-03T07:40:56.131Z,101765.97
2023-03-03T07:43:37.570Z,101778.50
2023-03-03T07:46:11.522Z,101775.66
2023-03-03T07:48:41.949Z,101779.69
2023-03-03T07:51:41.888Z,101773.09
2023-03-03T07:54:28.688Z,101783.25
2023-03-03T07:57:31.589Z,101788.81
2023-03-03T08:00:28.669Z,101807.13
2023-03-03T08:03:12.913Z,101801.59
2023-03-03T08:05:45.270Z,101804.75
2023-03-03T08:08:16.284Z,101807.09
2023-03-03T08:10:54.389Z,101815.00
2023-03-03T08:13:29.170Z,101817.31
2023-03-03T08:16:16.904Z,101814.22
2023-03-03T08:18:47.691Z,101811.25
2023-03-03T08:21:15.821Z,101813.50
2023-03-03T08:23:43.413Z,101806.34
2023-03-03T08:26:12.701Z,101816.16
2023-03-03T08:28:40.034Z,101812.28
2023-03-03T08:31:20.053Z,101818.56
2023-03-03T08:33:53.317Z,101828.19
2023-03-03T08:36:20.811Z,101825.72
2023-03-03T08:38:48.315Z,101830.41
2023-03-03T08:41:15.747Z,101834.34
2023-03-03T08:43:45.421Z,101835.84
2023-03-03T08:46:12.870Z,101830.75
2023-03-03T08:48:40.169Z,101830.34
2023-03-03T08:51:07.842Z,101835.59
2023-03-03T08:53:36.660Z,101834.22
2023-03-03T08:56:05.253Z,101824.78
2023-03-03T08:58:35.479Z,101825.47
2023-03-03T09:01:04.354Z,101832.94
2023-03-03T09:03:31.774Z,101838.75
2023-03-03T09:05:59.321Z,101840.25
2023-03-03T09:08:26.584Z,101843.34
2023-03-03T09:10:53.978Z,101847.00
2023-03-03T09:13:21.683Z,101836.47
2023-03-03T09:15:49.349Z,101843.69
2023-03-03T09:18:36.094Z,101834.94
2023-03-03T09:21:18.178Z,101835.88
2023-03-03T09:24:05.716Z,101837.94
2023-03-03T09:26:48.841Z,101848.84
2023-03-03T09:29:17.820Z,101853.31
2023-03-03T09:31:59.317Z,101854.53
2023-03-03T09:34:36.046Z,101840.72
2023-03-03T09:37:40.584Z,101851.88
2023-03-03T09:40:37.158Z,101846.38
2023-03-03T09:43:24.431Z,101852.88
2023-03-03T09:46:15.893Z,101851.25
2023-03-03T09:49:01.235Z,101848.91
2023-03-03T09:51:42.926Z,101856.44
2023-03-03T09:54:24.219Z,101847.47
2023-03-03T09:57:17.802Z,101850.94
2023-03-03T09:59:57.803Z,101848.41
2023-03-03T10:02:43.721Z,101847.72
2023-03-03T10:05:17.455Z,101859.66
2023-03-03T10:08:19.020Z,101858.91
2023-03-03T10:10:55.652Z,101863.66
2023-03-03T10:13:35.448Z,101870.13
2023-03-03T10:16:23.273Z,101868.16
2023-03-03T10:19:29.098Z,101876.16
2023-03-03T10:22:43.180Z,101879.34
2023-03-03T10:25:22.057Z,101886.22
2023-03-03T10:27:52.660Z,101889.22
2023-03-03T10:30:42.617Z,101888.88
2023-03-03T10:33:36.435Z,101891.63
2023-03-03T10:36:30.656Z,101889.13
2023-03-03T10:39:10.727Z,101890.19
2023-03-03T10:42:11.526Z,101886.41
2023-03-03T10:44:54.068Z,101889.91
2023-03-03T10:47:34.069Z,101889.72
2023-03-03T10:50:11.032Z,101876.34
2023-03-03T10:52:47.659Z,101887.66
2023-03-03T10:55:57.746Z,101874.22
2023-03-03T10:58:39.752Z,101881.38
2023-03-03T11:01:27.348Z,101886.31
2023-03-03T11:04:12.926Z,101884.94
2023-03-03T11:06:47.726Z,101881.22
2023-03-03T11:09:17.797Z,101869.88
2023-03-03T11:11:55.803Z,101874.97
2023-03-03T11:14:47.496Z,101875.88
2023-03-03T11:17:36.164Z,101867.28
2023-03-03T11:20:13.287Z,101870.03
2023-03-03T11:22:56.865Z,101873.94
2023-03-03T11:25:35.477Z,101876.41
2023-03-03T11:28:11.148Z,101872.09
2023-03-03T11:30:59.988Z,101868.34
2023-03-03T11:33:54.175Z,101870.41
2023-03-03T11:36:34.852Z,101868.19
2023-03-03T11:39:10.003Z,101861.72
2023-03-03T11:42:08.554Z,101854.69
2023-03-03T11:44:39.583Z,101857.00
2023-03-03T11:47:31.583Z,101856.41
2023-03-03T11:50:17.816Z,101854.56
2023-03-03T11:53:25.037Z,101839.97
2023-03-03T11:56:17.358Z,101845.94
2023-03-03T11:58:54.969Z,101842.63
2023-03-03T12:01:43.296Z,101850.84
2023-03-03T12:04:22.388Z,101839.19
2023-03-03T12:06:58.653Z,101833.59
2023-03-03T12:09:32.175Z,101830.88
2023-03-03T12:12:11.040Z,101826.66
2023-03-03T12:15:08.816Z,101824.34
2023-03-03T12:17:39.315Z,101820.00
2023-03-03T12:20:13.988Z,101819.28
2023-03-03T12:23:04.470Z,101818.38
2023-03-03T12:25:41.739Z,101824.94
2023-03-03T12:28:41.218Z,101821.50
2023-03-03T12:31:49.128Z,101817.00
2023-03-03T12:34:54.821Z,101820.66
2023-03-03T12:37:42.544Z,101816.00
2023-03-03T12:40:21.106Z,101815.06
2023-03-03T12:43:23.457Z,101814.53
2023-03-03T12:46:00.596Z,101818.84
2023-03-03T12:48:47.098Z,101799.75
2023-03-03T12:51:45.714Z,101802.75
2023-03-03T12:54:25.853Z,101798.38
2023-03-03T12:56:55.766Z,101802.88
2023-03-03T12:59:36.600Z,101805.50
2023-03-03T13:02:25.441Z,101798.53
2023-03-03T13:05:05.334Z,101788.13
2023-03-03T13:08:08.566Z,101785.22
2023-03-03T13:11:00.596Z,101796.66
2023-03-03T13:13:44.499Z,101792.28
2023-03-03T13:16:17.143Z,101780.75
2023-03-03T13:19:08.392Z,101788.47
2023-03-03T13:21:48.936Z,101790.16
2023-03-03T13:24:28.598Z,101773.16
2023-03-03T13:27:06.233Z,101784.69
2023-03-03T13:29:37.961Z,101787.97
2023-03-03T13:32:05.487Z,101784.63
2023-03-03T13:34:50.763Z,101786.81
2023-03-03T13:37:22.008Z,101775.56
2023-03-03T13:40:12.547Z,101778.38
2023-03-03T13:43:05.378Z,101773.72
2023-03-03T13:45:39.164Z,101773.44
2023-03-03T13:48:31.625Z,101779.19
2023-03-03T13:51:27.172Z,101765.72
2023-03-03T13:54:15.781Z,101766.34
2023-03-03T13:57:11.962Z,101768.75
2023-03-03T13:59:58.632Z,101766.81
2023-03-03T14:02:53.903Z,101772.34
2023-03-03T14:05:46.506Z,101771.22
2023-03-03T14:08:51.836Z,101774.50
2023-03-03T14:11:56.472Z,101775.59
2023-03-03T14:15:07.020Z,101767.69
2023-03-03T14:17:41.083Z,101768.75
2023-03-03T14:20:25.189Z,101777.81
2023-03-03T14:22:55.548Z,101764.94
2023-03-03T14:25:23.595Z,101759.91
2023-03-03T14:28:02.607Z,101756.78
2023-03-03T14:30:39.861Z,101759.66
2023-03-03T14:33:31.653Z,101751.66
2023-03-03T14:35:59.487Z,101755.53
2023-03-03T14:38:32.671Z,101747.53
2023-03-03T14:41:12.099Z,101749.50
2023-03-03T14:43:40.477Z,101753.31
2023-03-03T14:46:26.770Z,101748.63
2023-03-03T14:48:56.373Z,101741.47
2023-03-03T14:51:24.625Z,101742.59
2023-03-03T14:53:52.418Z,101742.59
2023-03-03T14:56:36.215Z,101742.66
2023-03-03T14:59:12.410Z,101742.88
2023-03-03T15:01:39.979Z,101741.78
2023-03-03T15:04:16.618Z,101746.44
2023-03-03T15:06:45.106Z,101745.16
2023-03-03T15:09:50.474Z,101742.59
2023-03-03T15:12:26.661Z,101743.47
2023-03-03T15:15:02.966Z,101744.84
2023-03-03T15:17:41.566Z,101746.50
2023-03-03T15:20:10.525Z,101754.19
2023-03-03T15:22:48.709Z,101753.09
2023-03-03T15:25:41.987Z,101748.47
2023-03-03T15:28:44.795Z,101753.66
2023-03-03T15:31:41.183Z,101747.59
2023-03-03T15:34:24.000Z,101760.22
2023-03-03T15:36:57.368Z,101761.38
2023-03-03T15:40:04.125Z,101747.09
2023-03-03T15:42:39.374Z,101766.59
2023-03-03T15:45:17.015Z,101753.94
2023-03-03T15:47:56.561Z,101760.53
2023-03-03T15:50:53.360Z,101752.84
2023-03-03T15:53:46.059Z,101754.78
2023-03-03T15:56:30.950Z,101751.19
2023-03-03T15:59:02.428Z,101767.94
2023-03-03T16:01:36.236Z,101756.13
2023-03-03T16:04:13.728Z,101761.91
2023-03-03T16:07:06.138Z,101768.78
2023-03-03T16:09:57.976Z,101767.41
2023-03-03T16:12:35.024Z,101768.47
2023-03-03T16:15:25.102Z,101766.28
2023-03-03T16:18:10.889Z,101763.81
2023-03-03T16:20:57.222Z,101772.81
2023-03-03T16:23:27.829Z,101781.66
2023-03-03T16:26:05.286Z,101785.19
2023-03-03T16:29:00.919Z,101786.81
2023-03-03T16:31:38.233Z,101798.56
2023-03-03T16:34:15.054Z,101791.16
2023-03-03T16:36:54.886Z,101799.88
2023-03-03T16:39:40.736Z,101799.94
2023-03-03T16:42:18.322Z,101804.53
2023-03-03T16:44:58.867Z,101790.53
2023-03-03T16:47:38.252Z,101800.72
2023-03-03T16:50:50.530Z,101807.75
2023-03-03T16:53:33.359Z,101813.22
2023-03-03T16:56:23.593Z,101809.91
2023-03-03T16:58:53.936Z,101816.53
2023-03-03T17:01:30.122Z,101828.59
2023-03-03T17:04:28.763Z,101826.38
2023-03-03T17:07:03.569Z,101823.59
2023-03-03T17:09:34.175Z,101841.03
2023-03-03T17:12:23.335Z,101835.88
2023-03-03T17:15:06.422Z,101843.72
2023-03-03T17:17:36.891Z,101845.72
2023-03-03T17:20:15.711Z,101854.47
2023-03-03T17:23:09.621Z,101864.00
2023-03-03T17:26:13.577Z,101865.94
2023-03-03T17:28:46.912Z,101885.00
2023-03-03T17:31:26.783Z,101875.09
2023-03-03T17:34:16.200Z,101879.94
2023-03-03T17:36:57.680Z,101887.97
2023-03-03T17:39:46.506Z,101897.41
2023-03-03T17:42:22.276Z,101897.81
2023-03-03T17:45:03.063Z,101896.75
2023-03-03T17:47:58.195Z,101907.41
2023-03-03T17:50:53.833Z,101912.97
2023-03-03T17:53:37.996Z,101907.72
2023-03-03T17:56:59.692Z,101912.66
2023-03-03T17:59:42.536Z,101910.25
2023-03-03T18:02:37.565Z,101928.00
2023-03-03T18:05:25.448Z,101934.88
2023-03-03T18:08:24.986Z,101929.91
2023-03-03T18:10:58.272Z,101932.75
2023-03-03T18:13:44.298Z,101932.63
2023-03-03T18:16:41.923Z,101937.84
2023-03-03T18:19:18.418Z,101941.03
2023-03-03T18:21:48.746Z,101953.63
2023-03-03T18:24:16.170Z,101949.81
2023-03-03T18:26:43.913Z,101944.84
2023-03-03T18:29:20.546Z,101961.13
2023-03-03T18:31:48.031Z,101955.66
2023-03-03T18:34:21.501Z,101949.38
2023-03-03T18:37:11.059Z,101966.19
2023-03-03T18:40:10.597Z,101960.00
2023-03-03T18:42:40.874Z,101966.53
2023-03-03T18:45:20.477Z,101966.38
2023-03-03T18:47:59.798Z,101975.75
2023-03-03T18:50:34.965Z,101992.31
2023-03-03T18:53:18.022Z,101984.75
2023-03-03T18:55:47.319Z,101981.78
2023-03-03T18:58:14.499Z,101987.81
2023-03-03T19:01:00.142Z,101991.84
2023-03-03T19:03:36.406Z,102000.31
2023-03-03T19:06:08.558Z,101994.13
2023-03-03T19:08:45.101Z,101992.72
2023-03-03T19:11:40.749Z,101988.88
2023-03-03T19:14:17.425Z,101991.81
2023-03-03T19:16:45.545Z,101995.44
2023-03-03T19:19:23.751Z,101995.53
2023-03-03T19:22:01.570Z,101992.22
2023-03-03T19:24:33.804Z,102001.22
2023-03-03T19:27:31.218Z,102000.91
2023-03-03T19:30:04.891Z,102001.81
2023-03-03T19:33:10.532Z,102006.22
2023-03-03T19:35:52.188Z,102005.59
2023-03-03T19:38:46.059Z,102011.56
2023-03-03T19:41:29.184Z,102014.56
2023-03-03T19:44:00.162Z,101999.47
2023-03-03T19:46:36.504Z,102022.94
2023-03-03T19:49:35.641Z,102016.75
2023-03-03T19:52:08.818Z,102018.34
2023-03-03T19:54:57.343Z,102005.00
2023-03-03T19:57:35.090Z,102026.97
2023-03-03T20:00:34.578Z,102008.31
2023-03-03T20:03:29.448Z,102012.44
2023-03-03T20:06:20.825Z,102023.47
2023-03-03T20:09:23.479Z,102018.06
2023-03-03T20:11:53.722Z,102029.78
2023-03-03T20:14:33.618Z,102034.47
2023-03-03T20:17:30.711Z,102040.06
2023-03-03T20:20:15.615Z,102031.41
2023-03-03T20:23:07.206Z,102040.28
2023-03-03T20:25:44.991Z,102037.13
2023-03-03T20:28:38.259Z,102038.97
2023-03-03T20:31:06.967Z,102038.47
2023-03-03T20:33:52.734Z,102049.63
2023-03-03T20:36:28.737Z,102050.84
2023-03-03T20:39:02.089Z,102055.88
2023-03-03T20:41:58.769Z,102049.88
2023-03-03T20:44:41.454Z,102048.34
2023-03-03T20:47:30.857Z,102047.00
2023-03-03T20:50:15.368Z,102050.84
2023-03-03T20:52:49.233Z,102039.03
2023-03-03T20:55:24.739Z,102046.81
2023-03-03T20:57:58.048Z,102045.63
2023-03-03T21:00:46.311Z,102047.66
2023-03-03T21:03:19.861Z,102042.50
2023-03-03T21:06:09.550Z,102047.44
2023-03-03T21:08:40.851Z,102047.78
2023-03-03T21:11:08.601Z,102042.44
2023-03-03T21:13:41.319Z,102043.38
2023-03-03T21:16:39.059Z,102049.75
2023-03-03T21:19:10.653Z,102045.50
2023-03-03T21:21:43.109Z,102047.19
2023-03-03T21:24:19.818Z,102050.63
2023-03-03T21:26:55.625Z,102055.63
2023-03-03T21:29:34.555Z,102055.78
2023-03-03T21:32:09.742Z,102057.97
2023-03-03T21:34:39.353Z,102058.63
2023-03-03T21:37:12.651Z,102059.34
2023-03-03T21:39:41.928Z,102060.38
2023-03-03T21:42:13.343Z,102064.47
2023-03-03T21:44:46.681Z,102058.66
2023-03-03T21:47:19.119Z,102059.63
2023-03-03T21:49:49.221Z,102062.00
2023-03-03T21:52:18.643Z,102059.50
2023-03-03T21:54:47.308Z,102074.28
2023-03-03T21:57:15.486Z,102066.72
2023-03-03T21:59:43.108Z,102063.97
2023-03-03T22:02:10.666Z,102069.63
2023-03-03T22:04:41.118Z,102069.06
2023-03-03T22:07:09.005Z,102066.22
2023-03-03T22:09:37.192Z,102067.63
2023-03-03T22:12:05.935Z,102068.81
2023-03-03T22:14:33.438Z,102063.25
2023-03-03T22:17:00.928Z,102065.03
2023-03-03T22:19:28.282Z,102063.81
2023-03-03T22:21:55.752Z,102061.59
2023-03-03T22:24:23.049Z,102063.97
2023-03-03T22:26:50.319Z,102076.66
2023-03-03T22:29:22.853Z,102071.56
2023-03-03T22:31:51.168Z,102074.63
2023-03-03T22:34:18.770Z,102077.09
2023-03-03T22:36:46.591Z,102079.84
2023-03-03T22:39:14.070Z,102074.63
2023-03-03T22:41:41.423Z,102074.13
2023-03-03T22:44:08.708Z,102081.59
2023-03-03T22:46:36.061Z,102080.09
2023-03-03T22:49:03.461Z,102076.06
2023-03-03T22:51:30.897Z,102081.28
2023-03-03T22:53:58.263Z,102084.25
2023-03-03T22:56:25.834Z,102079.03
2023-03-03T22:58:53.605Z,102082.31
2023-03-03T23:01:21.169Z,102081.16
2023-03-03T23:03:50.198Z,102074.41
2023-03-03T23:06:17.608Z,102081.84
2023-03-03T23:08:44.961Z,102085.63
2023-03-03T23:11:12.518Z,102089.31
2023-03-03T23:13:39.881Z,102087.63
2023-03-03T23:16:07.505Z,102087.41
2023-03-03T23:18:34.957Z,102079.56
2023-03-03T23:21:02.486Z,102089.41
2023-03-03T23:23:30.687Z,102099.56
2023-03-03T23:25:58.051Z,102084.03
2023-03-03T23:28:25.343Z,102092.06
2023-03-03T23:30:52.745Z,102102.16
2023-03-03T23:33:20.466Z,102089.13
2023-03-03T23:35:49.830Z,102091.00
2023-03-03T23:38:17.837Z,102090.44
2023-03-03T23:40:46.855Z,102088.41
2023-03-03T23:43:14.969Z,102097.75
2023-03-03T23:45:42.248Z,102089.38
2023-03-03T23:48:10.216Z,102090.28
2023-03-03T23:50:38.180Z,102098.94
2023-03-03T23:53:06.641Z,102098.47
2023-03-03T23:55:34.851Z,102093.16
2023-03-03T23:58:02.173Z,102097.41
